This is the latest recevied weather packets stored in our database for station/object DJ6OI-23. If no packets are shown the sender has not sent any weather packets the latest 10 day(s).
| Time | Temp. | Humidity | Pressure | Rain* | Wind** | Luminosity | Snow |
|---|---|---|---|---|---|---|---|
| 1777143477 | 12.78° C | 43% | 996.9 hPa | 0 mm | - | - | - |
| 1777142542 | 13.33° C | 41% | 996.7 hPa | 0 mm | - | - | - |
| 1777141607 | 14.44° C | 39% | 996.8 hPa | 0 mm | - | - | - |
| 1777140672 | 15° C | 37% | 996.5 hPa | 0 mm | - | - | - |
| 1777139737 | 16.11° C | 34% | 996.5 hPa | 0 mm | - | - | - |
| 1777138802 | 19.44° C | 30% | 996.5 hPa | 0 mm | - | - | - |
| 1777137867 | 20.56° C | 27% | 996.5 hPa | 0 mm | - | - | - |
| 1777136932 | 21.11° C | 27% | 996.5 hPa | 0 mm | - | - | - |
| 1777135997 | 21.11° C | 28% | 996.4 hPa | 0 mm | - | - | - |
| 1777135063 | 20.56° C | 28% | 996.3 hPa | 0 mm | - | - | - |
| 1777134128 | 20.56° C | 28% | 996.3 hPa | 0 mm | - | - | - |
| 1777132258 | 19.44° C | 32% | 996.4 hPa | 0 mm | - | - | - |
| 1777131323 | 18.33° C | 33% | 996.5 hPa | 0 mm | - | - | - |
| 1777130388 | 17.22° C | 34% | 996.5 hPa | 0 mm | - | - | - |
| 1777129453 | 17.78° C | 36% | 996.5 hPa | 0 mm | - | - | - |
| 1777128518 | 17.22° C | 36% | 996.6 hPa | 0 mm | - | - | - |
| 1777127583 | 17.22° C | 37% | 996.6 hPa | 0 mm | - | - | - |
| 1777126648 | 17.22° C | 36% | 996.5 hPa | 0 mm | - | - | - |
| 1777125713 | 17.22° C | 34% | 996.6 hPa | 0 mm | - | - | - |
| 1777124779 | 16.67° C | 35% | 996.7 hPa | 0 mm | - | - | - |
| 1777123844 | 16.67° C | 36% | 996.8 hPa | 0 mm | - | - | - |
| 1777122909 | 16.67° C | 39% | 996.9 hPa | 0 mm | - | - | - |
| 1777121974 | 16.11° C | 39% | 997 hPa | 0 mm | - | - | - |
| 1777121039 | 16.11° C | 41% | 997.1 hPa | 0 mm | - | - | - |
| 1777120104 | 15.56° C | 41% | 997.1 hPa | 0 mm | - | - | - |
* Rain latest hour (hover to see other rain measurements)
** Current wind speed in m/s (hover to see current wind gust speed)